Wetterdaten: Woche 13.11.17 - 19.11.17 (KW46)
Datum Zeit Temp. A. Pool Temp. Feuchte A. Luftdruck Regen Wind Richtung Sonnenschein ET UV Solar Taupunkt Windchill Windben Empfang
13.11.2017 00:00 4,1 C 7,8 C 85 % 1003,7 hPa 0,0 l/m 19,5 km/h (3 Bft) W-SW 0,00 h 0,000 mm 0,0 UV-I 0 W/m 1,7 C -4,0 C 29,8 km/h (5 Bft) 99,29 %
13.11.2017 01:00 4,0 C 7,8 C 86 % 1003,8 hPa 0,0 l/m 17,3 km/h (3 Bft) W-SW 0,00 h 0,025 mm 0,0 UV-I 0 W/m 1,7 C -3,3 C 26,7 km/h (4 Bft) 97,20 %
13.11.2017 02:00 3,8 C 7,8 C 86 % 1004,6 hPa 0,0 l/m 15,9 km/h (3 Bft) W-SW 0,00 h 0,026 mm 0,0 UV-I 0 W/m 1,7 C -2,8 C 23,7 km/h (4 Bft) 97,51 %
13.11.2017 03:00 3,7 C 7,8 C 85 % 1004,7 hPa 0,0 l/m 12,6 km/h (3 Bft) W-SW 0,00 h 0,025 mm 0,0 UV-I 0 W/m 1,5 C -0,9 C 19,7 km/h (3 Bft) 98,06 %
13.11.2017 04:00 3,0 C 7,8 C 90 % 1005,3 hPa 0,0 l/m 10,9 km/h (2 Bft) W-SW 0,00 h 0,026 mm 0,0 UV-I 0 W/m 1,5 C -0,6 C 18,3 km/h (3 Bft) 99,46 %
13.11.2017 05:00 3,0 C 7,8 C 90 % 1006,4 hPa 0,2 l/m 10,1 km/h (2 Bft) W-SW 0,00 h 0,000 mm 0,0 UV-I 0 W/m 1,5 C -0,1 C 16,7 km/h (3 Bft) 96,24 %
13.11.2017 06:00 2,9 C 7,8 C 91 % 1006,9 hPa 0,0 l/m 5,5 km/h (1 Bft) W 0,00 h 0,000 mm 0,0 UV-I 0 W/m 1,6 C 2,6 C 10,3 km/h (2 Bft) 97,91 %
13.11.2017 07:00 3,0 C 7,8 C 92 % 1008,2 hPa 0,0 l/m 7,4 km/h (2 Bft) W 0,00 h 0,000 mm 0,0 UV-I 8 W/m 1,8 C 1,7 C 13,2 km/h (3 Bft) 97,90 %
13.11.2017 08:00 3,0 C 7,8 C 92 % 1008,9 hPa 0,0 l/m 7,8 km/h (2 Bft) W 0,00 h 0,000 mm 0,0 UV-I 30 W/m 1,9 C 1,5 C 12,9 km/h (3 Bft) 99,17 %
13.11.2017 09:00 3,1 C 7,8 C 91 % 1009,6 hPa 0,0 l/m 8,4 km/h (2 Bft) W 0,00 h 0,025 mm 0,0 UV-I 57 W/m 1,8 C 1,3 C 14,1 km/h (3 Bft) 95,47 %
13.11.2017 10:00 3,4 C 7,8 C 90 % 1010,3 hPa 0,0 l/m 7,3 km/h (2 Bft) W 0,00 h 0,025 mm 0,0 UV-I 95 W/m 1,9 C 2,3 C 12,8 km/h (3 Bft) 98,86 %
13.11.2017 11:00 3,8 C 7,8 C 88 % 1010,8 hPa 0,0 l/m 8,3 km/h (2 Bft) W-SW 0,00 h 0,051 mm 0,5 UV-I 154 W/m 2,1 C 2,0 C 14,9 km/h (3 Bft) 98,04 %
13.11.2017 12:00 4,2 C 7,7 C 86 % 1011,3 hPa 0,0 l/m 7,4 km/h (2 Bft) W 0,00 h 0,076 mm 0,0 UV-I 137 W/m 2,1 C 3,0 C 12,8 km/h (3 Bft) 98,87 %
13.11.2017 13:00 4,5 C 7,8 C 84 % 1011,8 hPa 0,0 l/m 7,9 km/h (2 Bft) W 0,40 h 0,051 mm 0,3 UV-I 186 W/m 2,0 C 3,0 C 14,0 km/h (3 Bft) 95,79 %
13.11.2017 14:00 5,0 C 7,8 C 81 % 1012,3 hPa 0,0 l/m 6,9 km/h (2 Bft) W 0,73 h 0,076 mm 0,0 UV-I 161 W/m 2,0 C 4,0 C 13,4 km/h (3 Bft) 99,47 %
13.11.2017 15:00 4,5 C 7,7 C 83 % 1013,6 hPa 0,0 l/m 8,7 km/h (2 Bft) W 0,00 h 0,077 mm 0,0 UV-I 24 W/m 1,8 C 2,5 C 13,6 km/h (3 Bft) 98,16 %
13.11.2017 16:00 4,2 C 7,7 C 84 % 1014,6 hPa 0,0 l/m 9,4 km/h (2 Bft) W 0,00 h 0,025 mm 0,0 UV-I 9 W/m 1,7 C 1,7 C 14,8 km/h (3 Bft) 98,98 %
13.11.2017 17:00 4,1 C 7,7 C 84 % 1015,5 hPa 0,0 l/m 12,0 km/h (2 Bft) W 0,00 h 0,025 mm 0,0 UV-I 0 W/m 1,6 C -0,2 C 18,3 km/h (3 Bft) 96,14 %
13.11.2017 18:00 3,9 C 7,3 C 85 % 1016,7 hPa 0,0 l/m 10,0 km/h (2 Bft) W-SW 0,00 h 0,026 mm 0,0 UV-I 0 W/m 1,6 C 0,9 C 15,5 km/h (3 Bft) 99,03 %
13.11.2017 19:00 3,7 C 7,2 C 86 % 1017,2 hPa 0,0 l/m 8,4 km/h (2 Bft) W 0,00 h 0,025 mm 0,0 UV-I 0 W/m 1,6 C 1,8 C 12,8 km/h (3 Bft) 98,22 %
13.11.2017 20:00 3,7 C 7,2 C 87 % 1018,0 hPa 0,0 l/m 7,1 km/h (2 Bft) W-SW 0,00 h 0,000 mm 0,0 UV-I 0 W/m 1,6 C 2,8 C 11,9 km/h (2 Bft) 98,05 %
13.11.2017 21:00 3,5 C 7,2 C 87 % 1018,6 hPa 0,0 l/m 9,0 km/h (2 Bft) W-SW 0,00 h 0,000 mm 0,0 UV-I 0 W/m 1,6 C 1,3 C 14,0 km/h (3 Bft) 96,77 %
13.11.2017 22:00 3,2 C 7,2 C 88 % 1019,2 hPa 0,0 l/m 9,1 km/h (2 Bft) W 0,00 h 0,000 mm 0,0 UV-I 0 W/m 1,5 C 0,9 C 13,6 km/h (3 Bft) 98,96 %
13.11.2017 23:00 2,6 C 7,2 C 90 % 1019,7 hPa 0,0 l/m 6,8 km/h (2 Bft) W-SW 0,00 h 0,000 mm 0,0 UV-I 0 W/m 1,1 C 2,0 C 10,4 km/h (2 Bft) 97,67 %
14.11.2017 00:00 1,7 C 7,2 C 92 % 1020,3 hPa 0,0 l/m 6,4 km/h (2 Bft) SW 0,00 h 0,000 mm 0,0 UV-I 0 W/m 0,6 C 1,3 C 9,3 km/h (2 Bft) 96,97 %
14.11.2017 01:00 1,8 C 7,2 C 92 % 1021,0 hPa 0,0 l/m 7,0 km/h (2 Bft) W 0,00 h 0,000 mm 0,0 UV-I 0 W/m 0,7 C 1,0 C 10,8 km/h (2 Bft) 98,12 %
14.11.2017 02:00 1,5 C 7,2 C 93 % 1021,5 hPa 0,0 l/m 6,4 km/h (2 Bft) W-SW 0,00 h 0,000 mm 0,0 UV-I 0 W/m 0,5 C 1,2 C 9,8 km/h (2 Bft) 98,08 %
14.11.2017 03:00 1,2 C 7,2 C 94 % 1022,1 hPa 0,0 l/m 5,5 km/h (1 Bft) SW 0,00 h 0,000 mm 0,0 UV-I 0 W/m 0,3 C 1,1 C 8,2 km/h (2 Bft) 98,43 %
14.11.2017 04:00 0,6 C 6,9 C 94 % 1022,7 hPa 0,0 l/m 3,8 km/h (1 Bft) S-SW 0,00 h 0,000 mm 0,0 UV-I 0 W/m -0,2 C 0,6 C 5,7 km/h (1 Bft) 96,47 %
14.11.2017 05:00 0,2 C 6,7 C 95 % 1023,2 hPa 0,0 l/m 5,0 km/h (1 Bft) W-SW 0,00 h 0,000 mm 0,0 UV-I 0 W/m -0,5 C 0,1 C 7,9 km/h (2 Bft) 99,21 %
14.11.2017 06:00 -0,3 C 6,7 C 95 % 1024,1 hPa 0,0 l/m 1,2 km/h (1 Bft) S-SW 0,00 h 0,000 mm 0,0 UV-I 0 W/m -0,9 C -0,3 C 3,0 km/h (1 Bft) 97,38 %
14.11.2017 07:00 -0,0 C 6,7 C 95 % 1024,9 hPa 0,0 l/m 2,7 km/h (1 Bft) S-SW 0,03 h 0,000 mm 0,0 UV-I 18 W/m -0,7 C -0,0 C 4,2 km/h (1 Bft) 97,00 %
14.11.2017 08:00 0,6 C 6,7 C 95 % 1025,6 hPa 0,0 l/m 2,3 km/h (1 Bft) S-SW 0,13 h 0,000 mm 0,0 UV-I 93 W/m -0,2 C 0,6 C 3,9 km/h (1 Bft) 98,08 %
14.11.2017 09:00 1,6 C 6,7 C 93 % 1026,0 hPa 0,0 l/m 3,5 km/h (1 Bft) W 0,65 h 0,025 mm 0,4 UV-I 169 W/m 0,6 C 1,6 C 6,8 km/h (2 Bft) 98,42 %
14.11.2017 10:00 3,1 C 6,7 C 90 % 1026,3 hPa 0,0 l/m 3,7 km/h (1 Bft) W 0,92 h 0,077 mm 0,7 UV-I 367 W/m 1,5 C 3,1 C 8,9 km/h (2 Bft) 97,88 %
14.11.2017 11:00 3,7 C 6,7 C 87 % 1026,2 hPa 0,0 l/m 3,7 km/h (1 Bft) W 0,73 h 0,127 mm 0,9 UV-I 361 W/m 1,6 C 3,7 C 8,0 km/h (2 Bft) 98,10 %
14.11.2017 12:00 4,2 C 6,7 C 85 % 1026,0 hPa 0,0 l/m 3,5 km/h (1 Bft) W-NW 0,60 h 0,127 mm 0,8 UV-I 285 W/m 1,9 C 4,2 C 7,6 km/h (2 Bft) 98,89 %
14.11.2017 13:00 4,5 C 6,7 C 84 % 1025,9 hPa 0,0 l/m 3,2 km/h (1 Bft) W-NW 1,00 h 0,127 mm 0,7 UV-I 326 W/m 2,0 C 4,5 C 7,2 km/h (2 Bft) 98,00 %
14.11.2017 14:00 3,7 C 6,7 C 86 % 1025,7 hPa 0,0 l/m 3,2 km/h (1 Bft) W-NW 1,00 h 0,127 mm 0,5 UV-I 209 W/m 1,5 C 3,7 C 6,9 km/h (2 Bft) 99,31 %
14.11.2017 15:00 2,6 C 6,7 C 89 % 1025,9 hPa 0,0 l/m 2,2 km/h (1 Bft) W 0,95 h 0,076 mm 0,0 UV-I 87 W/m 0,9 C 2,6 C 5,1 km/h (1 Bft) 98,29 %
14.11.2017 16:00 1,3 C 6,7 C 91 % 1026,3 hPa 0,0 l/m 2,8 km/h (1 Bft) W-NW 0,27 h 0,025 mm 0,0 UV-I 14 W/m 0,1 C 1,3 C 5,2 km/h (1 Bft) 96,46 %
14.11.2017 17:00 0,7 C 6,7 C 93 % 1026,9 hPa 0,0 l/m 5,1 km/h (1 Bft) W-SW 0,00 h 0,000 mm 0,0 UV-I 0 W/m -0,3 C 0,6 C 7,6 km/h (2 Bft) 98,34 %
14.11.2017 18:00 0,4 C 6,7 C 94 % 1027,4 hPa 0,0 l/m 3,8 km/h (1 Bft) SW 0,00 h 0,000 mm 0,0 UV-I 0 W/m -0,5 C 0,4 C 5,9 km/h (2 Bft) 98,14 %
14.11.2017 19:00 0,5 C 6,7 C 94 % 1028,0 hPa 0,0 l/m 4,1 km/h (1 Bft) W 0,00 h 0,000 mm 0,0 UV-I 0 W/m -0,3 C 0,4 C 7,3 km/h (2 Bft) 98,43 %
14.11.2017 20:00 0,6 C 6,7 C 93 % 1028,2 hPa 0,0 l/m 5,5 km/h (1 Bft) W-SW 0,00 h 0,000 mm 0,0 UV-I 0 W/m -0,4 C 0,2 C 8,9 km/h (2 Bft) 96,12 %
14.11.2017 21:00 0,5 C 6,7 C 94 % 1028,4 hPa 0,0 l/m 5,3 km/h (1 Bft) W-SW 0,00 h 0,000 mm 0,0 UV-I 0 W/m -0,4 C 0,2 C 9,4 km/h (2 Bft) 99,41 %
14.11.2017 22:00 0,4 C 6,7 C 94 % 1028,4 hPa 0,0 l/m 3,3 km/h (1 Bft) W 0,00 h 0,000 mm 0,0 UV-I 0 W/m -0,4 C 0,4 C 6,2 km/h (2 Bft) 97,79 %
14.11.2017 23:00 0,3 C 6,7 C 95 % 1028,4 hPa 0,0 l/m 4,4 km/h (1 Bft) W 0,00 h 0,000 mm 0,0 UV-I 0 W/m -0,4 C 0,2 C 7,9 km/h (2 Bft) 97,63 %
15.11.2017 00:00 0,2 C 6,7 C 95 % 1028,3 hPa 0,0 l/m 5,2 km/h (1 Bft) W-SW 0,00 h 0,000 mm 0,0 UV-I 0 W/m -0,4 C 0,0 C 8,8 km/h (2 Bft) 97,64 %
15.11.2017 01:00 0,2 C 6,7 C 96 % 1028,5 hPa 0,0 l/m 4,1 km/h (1 Bft) W 0,00 h 0,000 mm 0,0 UV-I 0 W/m -0,4 C 0,2 C 7,0 km/h (2 Bft) 99,17 %
15.11.2017 02:00 0,1 C 6,7 C 96 % 1028,5 hPa 0,0 l/m 4,3 km/h (1 Bft) W 0,00 h 0,000 mm 0,0 UV-I 0 W/m -0,4 C 0,1 C 7,7 km/h (2 Bft) 97,68 %
15.11.2017 03:00 0,1 C 6,7 C 96 % 1028,4 hPa 0,0 l/m 3,0 km/h (1 Bft) W 0,00 h 0,000 mm 0,0 UV-I 0 W/m -0,5 C 0,1 C 5,9 km/h (2 Bft) 97,78 %
15.11.2017 04:00 -0,1 C 6,7 C 96 % 1028,3 hPa 0,0 l/m 1,5 km/h (1 Bft) W-NW 0,00 h 0,000 mm 0,0 UV-I 0 W/m -0,7 C -0,1 C 3,5 km/h (1 Bft) 98,36 %
15.11.2017 05:00 -0,0 C 6,7 C 95 % 1028,3 hPa 0,0 l/m 1,0 km/h (0 Bft) W 0,00 h 0,000 mm 0,0 UV-I 0 W/m -0,7 C -0,0 C 2,7 km/h (1 Bft) 98,56 %
15.11.2017 06:00 -0,0 C 6,5 C 95 % 1028,5 hPa 0,0 l/m 1,1 km/h (1 Bft) N-NO 0,00 h 0,000 mm 0,0 UV-I 0 W/m -0,7 C -0,0 C 2,7 km/h (1 Bft) 96,02 %
15.11.2017 07:00 -0,1 C 6,1 C 95 % 1028,9 hPa 0,0 l/m 0,8 km/h (0 Bft) N 0,00 h 0,000 mm 0,0 UV-I 8 W/m -0,8 C -0,1 C 2,2 km/h (1 Bft) 98,47 %
15.11.2017 08:00 -0,0 C 6,1 C 95 % 1029,2 hPa 0,0 l/m 1,5 km/h (1 Bft) N 0,00 h 0,000 mm 0,0 UV-I 27 W/m -0,8 C -0,0 C 3,6 km/h (1 Bft) 98,75 %
15.11.2017 09:00 0,1 C 6,1 C 93 % 1029,4 hPa 0,0 l/m 2,4 km/h (1 Bft) O-SO 0,00 h 0,000 mm 0,0 UV-I 63 W/m -0,9 C 0,1 C 4,8 km/h (1 Bft) 97,49 %
15.11.2017 10:00 0,4 C 6,1 C 92 % 1029,4 hPa 0,0 l/m 2,6 km/h (1 Bft) NO 0,00 h 0,025 mm 0,0 UV-I 97 W/m -0,7 C 0,4 C 4,5 km/h (1 Bft) 97,10 %
15.11.2017 11:00 0,6 C 6,1 C 92 % 1028,8 hPa 0,0 l/m 2,7 km/h (1 Bft) N-NO 0,00 h 0,026 mm 0,5 UV-I 118 W/m -0,6 C 0,6 C 5,1 km/h (1 Bft) 98,83 %
15.11.2017 12:00 0,6 C 6,1 C 92 % 1028,4 hPa 0,0 l/m 2,4 km/h (1 Bft) N-NO 0,00 h 0,051 mm 0,0 UV-I 102 W/m -0,4 C 0,6 C 5,2 km/h (1 Bft) 98,32 %
15.11.2017 13:00 0,6 C 6,1 C 93 % 1027,8 hPa 0,0 l/m 2,8 km/h (1 Bft) NO 0,00 h 0,025 mm 0,0 UV-I 85 W/m -0,4 C 0,6 C 5,3 km/h (1 Bft) 97,37 %
15.11.2017 14:00 0,7 C 6,1 C 93 % 1027,3 hPa 0,0 l/m 2,9 km/h (1 Bft) NO 0,00 h 0,025 mm 0,0 UV-I 65 W/m -0,3 C 0,7 C 5,2 km/h (1 Bft) 97,83 %
15.11.2017 15:00 0,3 C 6,1 C 93 % 1027,2 hPa 0,0 l/m 2,0 km/h (1 Bft) O-NO 0,00 h 0,026 mm 0,0 UV-I 36 W/m -0,6 C 0,3 C 4,0 km/h (1 Bft) 97,85 %
15.11.2017 16:00 0,3 C 6,1 C 94 % 1027,1 hPa 0,0 l/m 1,4 km/h (1 Bft) N-NO 0,03 h 0,025 mm 0,0 UV-I 8 W/m -0,6 C 0,3 C 3,1 km/h (1 Bft) 99,00 %
15.11.2017 17:00 -0,1 C 6,1 C 94 % 1027,1 hPa 0,0 l/m 0,9 km/h (0 Bft) N-NO 0,00 h 0,000 mm 0,0 UV-I 0 W/m -0,9 C -0,1 C 2,3 km/h (1 Bft) 96,05 %
15.11.2017 18:00 -0,2 C 6,1 C 94 % 1027,1 hPa 0,0 l/m 1,5 km/h (1 Bft) SO 0,00 h 0,000 mm 0,0 UV-I 0 W/m -1,0 C -0,2 C 3,5 km/h (1 Bft) 99,06 %
15.11.2017 19:00 -0,2 C 6,1 C 94 % 1027,1 hPa 0,0 l/m 1,0 km/h (0 Bft) O-SO 0,00 h 0,000 mm 0,0 UV-I 0 W/m -1,1 C -0,2 C 2,6 km/h (1 Bft) 97,86 %
15.11.2017 20:00 -0,1 C 6,1 C 95 % 1027,3 hPa 0,0 l/m 0,4 km/h (0 Bft) O-SO 0,00 h 0,000 mm 0,0 UV-I 0 W/m -0,8 C -0,1 C 1,2 km/h (1 Bft) 97,79 %
15.11.2017 21:00 0,0 C 6,1 C 95 % 1027,4 hPa 0,0 l/m 0,5 km/h (0 Bft) O-SO 0,00 h 0,000 mm 0,0 UV-I 0 W/m -0,7 C 0,0 C 1,5 km/h (1 Bft) 97,67 %
15.11.2017 22:00 0,1 C 6,1 C 95 % 1026,9 hPa 0,0 l/m 3,6 km/h (1 Bft) O-SO 0,00 h 0,000 mm 0,0 UV-I 0 W/m -0,5 C 0,1 C 5,9 km/h (2 Bft) 99,65 %
15.11.2017 23:00 0,1 C 6,1 C 96 % 1026,4 hPa 0,0 l/m 3,9 km/h (1 Bft) O-NO 0,00 h 0,000 mm 0,0 UV-I 0 W/m -0,5 C 0,1 C 6,2 km/h (2 Bft) 96,92 %
16.11.2017 00:00 -0,2 C 6,1 C 97 % 1026,0 hPa 0,0 l/m 7,3 km/h (2 Bft) O-NO 0,00 h 0,000 mm 0,0 UV-I 0 W/m -0,6 C -1,3 C 11,7 km/h (2 Bft) 92,02 %
16.11.2017 01:00 -0,3 C 6,1 C 97 % 1025,5 hPa 0,0 l/m 7,8 km/h (2 Bft) NO 0,00 h 0,000 mm 0,0 UV-I 0 W/m -0,7 C -1,7 C 12,5 km/h (3 Bft) 97,87 %
16.11.2017 02:00 -0,3 C 6,1 C 97 % 1025,1 hPa 0,0 l/m 8,4 km/h (2 Bft) NO 0,00 h 0,000 mm 0,0 UV-I 0 W/m -0,7 C -2,3 C 13,2 km/h (3 Bft) 99,41 %
16.11.2017 03:00 -0,2 C 6,1 C 98 % 1024,8 hPa 0,0 l/m 9,2 km/h (2 Bft) O-NO 0,00 h 0,000 mm 0,0 UV-I 0 W/m -0,4 C -2,9 C 14,1 km/h (3 Bft) 96,78 %
16.11.2017 04:00 -0,0 C 6,1 C 98 % 1024,6 hPa 0,0 l/m 10,1 km/h (2 Bft) NO 0,00 h 0,000 mm 0,0 UV-I 0 W/m -0,3 C -3,5 C 15,8 km/h (3 Bft) 98,67 %
16.11.2017 05:00 0,2 C 6,1 C 98 % 1024,3 hPa 0,0 l/m 11,1 km/h (2 Bft) NO 0,00 h 0,000 mm 0,0 UV-I 0 W/m -0,1 C -3,9 C 16,9 km/h (3 Bft) 97,72 %
16.11.2017 06:00 0,5 C 6,1 C 98 % 1024,1 hPa 0,0 l/m 11,9 km/h (2 Bft) NO 0,00 h 0,000 mm 0,0 UV-I 0 W/m 0,2 C -4,3 C 18,1 km/h (3 Bft) 99,59 %
16.11.2017 07:00 0,6 C 6,1 C 98 % 1024,3 hPa 0,0 l/m 13,0 km/h (3 Bft) O-NO 0,00 h 0,000 mm 0,0 UV-I 7 W/m 0,3 C -4,8 C 19,2 km/h (3 Bft) 96,04 %
16.11.2017 08:00 0,8 C 5,9 C 97 % 1024,5 hPa 0,0 l/m 11,5 km/h (2 Bft) NO 0,00 h 0,000 mm 0,0 UV-I 21 W/m 0,3 C -3,6 C 18,2 km/h (3 Bft) 98,87 %
16.11.2017 09:00 0,8 C 5,7 C 96 % 1024,5 hPa 0,0 l/m 11,3 km/h (2 Bft) O-NO 0,00 h 0,000 mm 0,0 UV-I 40 W/m 0,2 C -3,4 C 16,8 km/h (3 Bft) 98,07 %
16.11.2017 10:00 1,0 C 5,6 C 95 % 1024,3 hPa 0,0 l/m 10,9 km/h (2 Bft) O-NO 0,00 h 0,025 mm 0,0 UV-I 62 W/m 0,3 C -3,0 C 16,0 km/h (3 Bft) 99,43 %
16.11.2017 11:00 1,3 C 5,6 C 95 % 1023,7 hPa 0,0 l/m 10,4 km/h (2 Bft) O-NO 0,00 h 0,026 mm 0,0 UV-I 103 W/m 0,5 C -2,3 C 15,7 km/h (3 Bft) 95,86 %
16.11.2017 12:00 2,0 C 5,6 C 92 % 1023,2 hPa 0,0 l/m 7,7 km/h (2 Bft) NO 0,00 h 0,051 mm 0,5 UV-I 129 W/m 0,9 C 0,7 C 11,9 km/h (2 Bft) 98,43 %
16.11.2017 13:00 2,4 C 5,6 C 91 % 1023,0 hPa 0,0 l/m 3,7 km/h (1 Bft) NW 0,10 h 0,050 mm 0,4 UV-I 92 W/m 1,1 C 2,2 C 6,5 km/h (2 Bft) 98,27 %
16.11.2017 14:00 2,1 C 5,6 C 93 % 1023,0 hPa 0,0 l/m 2,3 km/h (1 Bft) W 0,00 h 0,026 mm 0,0 UV-I 41 W/m 1,0 C 2,1 C 5,2 km/h (1 Bft) 99,44 %
16.11.2017 15:00 2,1 C 5,6 C 92 % 1023,1 hPa 0,0 l/m 2,9 km/h (1 Bft) W 0,00 h 0,025 mm 0,0 UV-I 20 W/m 0,9 C 2,1 C 5,3 km/h (1 Bft) 96,27 %
16.11.2017 16:00 2,1 C 5,6 C 93 % 1023,5 hPa 0,0 l/m 4,8 km/h (1 Bft) W 0,00 h 0,000 mm 0,0 UV-I 6 W/m 1,1 C 2,1 C 7,8 km/h (2 Bft) 98,24 %
16.11.2017 17:00 2,1 C 5,6 C 93 % 1023,9 hPa 0,0 l/m 4,9 km/h (1 Bft) W-SW 0,00 h 0,000 mm 0,0 UV-I 0 W/m 1,1 C 2,0 C 7,8 km/h (2 Bft) 97,58 %
16.11.2017 18:00 1,9 C 5,6 C 95 % 1023,9 hPa 0,0 l/m 5,8 km/h (2 Bft) W 0,00 h 0,000 mm 0,0 UV-I 0 W/m 1,1 C 1,6 C 10,0 km/h (2 Bft) 99,19 %
16.11.2017 19:00 1,6 C 5,6 C 96 % 1024,1 hPa 0,0 l/m 6,1 km/h (2 Bft) W-SW 0,00 h 0,000 mm 0,0 UV-I 0 W/m 1,1 C 1,3 C 10,0 km/h (2 Bft) 95,57 %
16.11.2017 20:00 1,4 C 5,6 C 94 % 1024,5 hPa 0,0 l/m 10,3 km/h (2 Bft) SW 0,00 h 0,000 mm 0,0 UV-I 0 W/m 0,6 C -2,0 C 16,2 km/h (3 Bft) 98,95 %
16.11.2017 21:00 1,2 C 5,6 C 92 % 1024,8 hPa 0,0 l/m 9,5 km/h (2 Bft) W-SW 0,00 h 0,000 mm 0,0 UV-I 0 W/m 0,1 C -1,6 C 15,0 km/h (3 Bft) 98,18 %
16.11.2017 22:00 1,3 C 5,6 C 91 % 1025,0 hPa 0,0 l/m 8,6 km/h (2 Bft) W-SW 0,00 h 0,000 mm 0,0 UV-I 0 W/m -0,1 C -0,8 C 14,1 km/h (3 Bft) 97,76 %
16.11.2017 23:00 1,2 C 5,6 C 90 % 1025,2 hPa 0,0 l/m 8,8 km/h (2 Bft) W-SW 0,00 h 0,000 mm 0,0 UV-I 0 W/m -0,2 C -1,2 C 14,2 km/h (3 Bft) 96,60 %
17.11.2017 00:00 1,1 C 5,6 C 89 % 1025,4 hPa 0,0 l/m 10,6 km/h (2 Bft) W-SW 0,00 h 0,000 mm 0,0 UV-I 0 W/m -0,5 C -2,6 C 16,1 km/h (3 Bft) 95,23 %
17.11.2017 01:00 1,1 C 5,6 C 89 % 1025,4 hPa 0,0 l/m 10,0 km/h (2 Bft) W-SW 0,00 h 0,000 mm 0,0 UV-I 0 W/m -0,5 C -2,1 C 15,4 km/h (3 Bft) 98,22 %
17.11.2017 02:00 1,2 C 5,6 C 89 % 1025,5 hPa 0,0 l/m 9,1 km/h (2 Bft) W-SW 0,00 h 0,000 mm 0,0 UV-I 0 W/m -0,4 C -1,3 C 14,2 km/h (3 Bft) 97,81 %
17.11.2017 03:00 1,4 C 5,6 C 88 % 1025,5 hPa 0,0 l/m 9,0 km/h (2 Bft) SW 0,00 h 0,000 mm 0,0 UV-I 0 W/m -0,4 C -1,0 C 14,0 km/h (3 Bft) 97,55 %
17.11.2017 04:00 1,4 C 5,6 C 89 % 1025,4 hPa 0,0 l/m 6,8 km/h (2 Bft) W-SW 0,00 h 0,000 mm 0,0 UV-I 0 W/m -0,2 C 0,5 C 11,3 km/h (2 Bft) 98,32 %
17.11.2017 05:00 1,5 C 5,6 C 89 % 1025,5 hPa 0,0 l/m 8,3 km/h (2 Bft) W 0,00 h 0,000 mm 0,0 UV-I 0 W/m -0,2 C -0,5 C 13,5 km/h (3 Bft) 98,66 %
17.11.2017 06:00 1,5 C 5,6 C 89 % 1025,8 hPa 0,0 l/m 9,3 km/h (2 Bft) W-SW 0,00 h 0,000 mm 0,0 UV-I 0 W/m -0,1 C -1,1 C 14,0 km/h (3 Bft) 96,45 %
17.11.2017 07:00 1,6 C 5,6 C 88 % 1026,1 hPa 0,0 l/m 7,0 km/h (2 Bft) W-SW 0,00 h 0,000 mm 0,0 UV-I 13 W/m -0,2 C 0,5 C 11,5 km/h (2 Bft) 97,42 %
17.11.2017 08:00 1,8 C 5,6 C 88 % 1026,4 hPa 0,0 l/m 5,4 km/h (1 Bft) SW 0,00 h 0,000 mm 0,0 UV-I 31 W/m 0,0 C 1,7 C 8,3 km/h (2 Bft) 98,69 %
17.11.2017 09:00 2,2 C 5,6 C 87 % 1026,5 hPa 0,0 l/m 5,8 km/h (2 Bft) W 0,00 h 0,025 mm 0,0 UV-I 50 W/m 0,3 C 1,8 C 9,4 km/h (2 Bft) 98,48 %
17.11.2017 10:00 2,6 C 5,6 C 85 % 1026,4 hPa 0,0 l/m 8,2 km/h (2 Bft) W-SW 0,00 h 0,026 mm 0,0 UV-I 59 W/m 0,4 C 1,0 C 13,4 km/h (3 Bft) 96,42 %
17.11.2017 11:00 2,9 C 5,6 C 85 % 1026,3 hPa 0,0 l/m 6,9 km/h (2 Bft) W-SW 0,00 h 0,025 mm 0,0 UV-I 94 W/m 0,7 C 1,9 C 11,4 km/h (2 Bft) 97,82 %
17.11.2017 12:00 3,0 C 5,6 C 88 % 1026,0 hPa 0,0 l/m 5,9 km/h (2 Bft) W-SW 0,00 h 0,051 mm 0,2 UV-I 85 W/m 1,2 C 2,5 C 10,5 km/h (2 Bft) 98,22 %
17.11.2017 13:00 3,1 C 5,6 C 88 % 1025,9 hPa 0,0 l/m 6,7 km/h (2 Bft) W-SW 0,00 h 0,025 mm 0,0 UV-I 63 W/m 1,4 C 2,3 C 10,9 km/h (2 Bft) 98,43 %
17.11.2017 14:00 3,4 C 5,6 C 88 % 1025,8 hPa 0,0 l/m 6,5 km/h (2 Bft) W 0,00 h 0,026 mm 0,0 UV-I 77 W/m 1,5 C 2,6 C 10,8 km/h (2 Bft) 96,67 %
17.11.2017 15:00 3,3 C 5,6 C 87 % 1025,8 hPa 0,0 l/m 4,0 km/h (1 Bft) W 0,00 h 0,025 mm 0,0 UV-I 35 W/m 1,4 C 3,3 C 6,7 km/h (2 Bft) 97,68 %
17.11.2017 16:00 3,1 C 5,6 C 88 % 1025,7 hPa 0,0 l/m 3,3 km/h (1 Bft) W 0,03 h 0,026 mm 0,0 UV-I 8 W/m 1,4 C 3,1 C 5,3 km/h (1 Bft) 97,80 %
17.11.2017 17:00 2,8 C 5,6 C 90 % 1025,8 hPa 0,0 l/m 2,9 km/h (1 Bft) W-SW 0,00 h 0,000 mm 0,0 UV-I 0 W/m 1,3 C 2,8 C 4,7 km/h (1 Bft) 98,92 %
17.11.2017 18:00 2,8 C 5,6 C 90 % 1025,8 hPa 0,0 l/m 3,8 km/h (1 Bft) W-SW 0,00 h 0,000 mm 0,0 UV-I 0 W/m 1,4 C 2,8 C 5,8 km/h (2 Bft) 95,82 %
17.11.2017 19:00 2,8 C 5,6 C 90 % 1025,6 hPa 0,0 l/m 3,4 km/h (1 Bft) W-SW 0,00 h 0,000 mm 0,0 UV-I 0 W/m 1,4 C 2,8 C 5,1 km/h (1 Bft) 99,24 %
17.11.2017 20:00 2,7 C 5,6 C 92 % 1025,4 hPa 0,0 l/m 2,2 km/h (1 Bft) W-SW 0,00 h 0,000 mm 0,0 UV-I 0 W/m 1,5 C 2,7 C 4,0 km/h (1 Bft) 97,50 %
17.11.2017 21:00 2,8 C 5,6 C 93 % 1025,2 hPa 0,0 l/m 0,1 km/h (0 Bft) N 0,00 h 0,000 mm 0,0 UV-I 0 W/m 1,7 C 2,8 C 0,3 km/h (0 Bft) 98,38 %
17.11.2017 22:00 2,7 C 5,6 C 94 % 1025,0 hPa 0,0 l/m 0,0 km/h (0 Bft) N 0,00 h 0,000 mm 0,0 UV-I 0 W/m 1,8 C 2,7 C 0,0 km/h (0 Bft) 96,38 %
17.11.2017 23:00 2,5 C 5,6 C 95 % 1024,7 hPa 0,0 l/m 0,0 km/h (0 Bft) N 0,00 h 0,000 mm 0,0 UV-I 0 W/m 1,7 C 2,5 C 0,0 km/h (0 Bft) 98,62 %
18.11.2017 00:00 2,5 C 5,6 C 96 % 1024,3 hPa 0,0 l/m 1,5 km/h (1 Bft) W-SW 0,00 h 0,000 mm 0,0 UV-I 0 W/m 1,9 C 2,5 C 2,7 km/h (1 Bft) 98,09 %
18.11.2017 01:00 2,5 C 5,6 C 96 % 1024,0 hPa 0,0 l/m 3,7 km/h (1 Bft) W-SW 0,00 h 0,000 mm 0,0 UV-I 0 W/m 1,9 C 2,5 C 5,7 km/h (1 Bft) 97,52 %
18.11.2017 02:00 2,4 C 5,6 C 96 % 1023,5 hPa 0,0 l/m 4,0 km/h (1 Bft) SW 0,00 h 0,000 mm 0,0 UV-I 0 W/m 1,9 C 2,4 C 6,2 km/h (2 Bft) 97,33 %
18.11.2017 03:00 2,4 C 5,6 C 96 % 1023,0 hPa 0,0 l/m 1,7 km/h (1 Bft) SW 0,00 h 0,000 mm 0,0 UV-I 0 W/m 1,7 C 2,4 C 2,8 km/h (1 Bft) 99,08 %
18.11.2017 04:00 2,3 C 5,6 C 96 % 1022,7 hPa 0,0 l/m 1,7 km/h (1 Bft) SW 0,00 h 0,000 mm 0,0 UV-I 0 W/m 1,7 C 2,3 C 2,8 km/h (1 Bft) 97,25 %
18.11.2017 05:00 2,3 C 5,6 C 96 % 1022,5 hPa 0,0 l/m 3,6 km/h (1 Bft) SW 0,00 h 0,000 mm 0,0 UV-I 0 W/m 1,7 C 2,3 C 5,7 km/h (1 Bft) 97,15 %
18.11.2017 06:00 2,1 C 5,6 C 96 % 1022,4 hPa 0,0 l/m 3,7 km/h (1 Bft) SW 0,00 h 0,000 mm 0,0 UV-I 0 W/m 1,6 C 2,1 C 5,7 km/h (1 Bft) 97,39 %
18.11.2017 07:00 2,2 C 5,6 C 96 % 1022,5 hPa 0,0 l/m 5,7 km/h (1 Bft) W-SW 0,00 h 0,000 mm 0,0 UV-I 9 W/m 1,6 C 2,1 C 8,8 km/h (2 Bft) 98,87 %
18.11.2017 08:00 2,7 C 5,6 C 95 % 1022,4 hPa 0,0 l/m 5,9 km/h (2 Bft) SW 0,00 h 0,000 mm 0,0 UV-I 36 W/m 2,0 C 2,5 C 9,0 km/h (2 Bft) 96,46 %
18.11.2017 09:00 3,1 C 5,6 C 94 % 1022,3 hPa 0,0 l/m 4,9 km/h (1 Bft) W-SW 0,00 h 0,025 mm 0,0 UV-I 66 W/m 2,2 C 3,0 C 7,7 km/h (2 Bft) 98,01 %
18.11.2017 10:00 3,8 C 5,6 C 91 % 1022,1 hPa 0,0 l/m 6,1 km/h (2 Bft) W 0,00 h 0,026 mm 0,4 UV-I 134 W/m 2,6 C 3,4 C 10,1 km/h (2 Bft) 98,50 %
18.11.2017 11:00 4,4 C 5,6 C 88 % 1021,5 hPa 0,0 l/m 6,7 km/h (2 Bft) W-SW 0,00 h 0,051 mm 0,0 UV-I 110 W/m 2,6 C 3,5 C 11,3 km/h (2 Bft) 99,08 %
18.11.2017 12:00 4,6 C 5,6 C 87 % 1021,0 hPa 0,0 l/m 8,9 km/h (2 Bft) W 0,00 h 0,050 mm 0,4 UV-I 84 W/m 2,6 C 2,5 C 14,2 km/h (3 Bft) 96,42 %
18.11.2017 13:00 4,5 C 5,6 C 87 % 1020,4 hPa 0,0 l/m 6,2 km/h (2 Bft) W 0,00 h 0,051 mm 0,0 UV-I 47 W/m 2,5 C 3,9 C 10,6 km/h (2 Bft) 97,32 %
18.11.2017 14:00 4,5 C 5,6 C 89 % 1019,8 hPa 0,0 l/m 7,6 km/h (2 Bft) W-SW 0,00 h 0,026 mm 0,0 UV-I 35 W/m 2,9 C 3,2 C 12,5 km/h (3 Bft) 97,24 %
18.11.2017 15:00 4,4 C 5,6 C 91 % 1019,3 hPa 0,0 l/m 11,9 km/h (2 Bft) W-SW 0,00 h 0,025 mm 0,0 UV-I 25 W/m 3,1 C 0,2 C 18,3 km/h (3 Bft) 99,03 %
18.11.2017 16:00 4,3 C 5,6 C 92 % 1019,1 hPa 0,2 l/m 9,3 km/h (2 Bft) W 0,00 h 0,025 mm 0,0 UV-I 8 W/m 3,1 C 1,9 C 14,5 km/h (3 Bft) 96,31 %
18.11.2017 17:00 4,0 C 5,6 C 95 % 1019,0 hPa 0,4 l/m 10,7 km/h (2 Bft) W 0,00 h 0,000 mm 0,0 UV-I 0 W/m 3,2 C 0,6 C 16,9 km/h (3 Bft) 98,36 %
18.11.2017 18:00 4,0 C 5,6 C 94 % 1018,7 hPa 0,0 l/m 12,0 km/h (2 Bft) SW 0,00 h 0,000 mm 0,0 UV-I 0 W/m 3,1 C -0,2 C 18,3 km/h (3 Bft) 98,02 %
18.11.2017 19:00 4,3 C 5,6 C 92 % 1018,5 hPa 0,0 l/m 15,2 km/h (3 Bft) SW 0,00 h 0,000 mm 0,0 UV-I 0 W/m 3,0 C -1,8 C 22,3 km/h (4 Bft) 99,49 %
18.11.2017 20:00 4,5 C 5,6 C 89 % 1018,2 hPa 0,2 l/m 15,4 km/h (3 Bft) SW 0,00 h 0,000 mm 0,0 UV-I 0 W/m 2,9 C -1,7 C 23,5 km/h (4 Bft) 95,93 %
18.11.2017 21:00 4,7 C 5,6 C 83 % 1018,3 hPa 0,0 l/m 19,0 km/h (3 Bft) W-SW 0,00 h 0,026 mm 0,0 UV-I 0 W/m 2,1 C -3,0 C 29,0 km/h (5 Bft) 97,69 %
18.11.2017 22:00 4,5 C 5,6 C 78 % 1018,1 hPa 0,0 l/m 19,1 km/h (3 Bft) W-SW 0,00 h 0,025 mm 0,0 UV-I 0 W/m 1,0 C -3,3 C 28,6 km/h (4 Bft) 98,07 %
18.11.2017 23:00 4,5 C 5,6 C 77 % 1017,9 hPa 0,0 l/m 17,1 km/h (3 Bft) W-SW 0,00 h 0,026 mm 0,0 UV-I 0 W/m 0,9 C -2,5 C 26,8 km/h (4 Bft) 97,84 %
19.11.2017 00:00 4,2 C 5,6 C 79 % 1017,4 hPa 0,0 l/m 15,0 km/h (3 Bft) W-SW 0,00 h 0,000 mm 0,0 UV-I 0 W/m 0,9 C -1,8 C 22,6 km/h (4 Bft) 96,67 %
19.11.2017 01:00 4,0 C 5,6 C 80 % 1016,7 hPa 0,0 l/m 12,6 km/h (3 Bft) W-SW 0,00 h 0,025 mm 0,0 UV-I 0 W/m 0,9 C -0,7 C 18,7 km/h (3 Bft) 98,03 %
19.11.2017 02:00 4,0 C 5,6 C 80 % 1015,8 hPa 0,0 l/m 13,0 km/h (3 Bft) W-SW 0,00 h 0,026 mm 0,0 UV-I 0 W/m 0,9 C -1,0 C 19,3 km/h (3 Bft) 99,35 %
19.11.2017 03:00 4,1 C 5,6 C 77 % 1015,0 hPa 0,0 l/m 14,4 km/h (3 Bft) W-SW 0,00 h 0,025 mm 0,0 UV-I 0 W/m 0,4 C -1,7 C 22,1 km/h (4 Bft) 98,08 %
19.11.2017 04:00 3,9 C 5,6 C 78 % 1014,6 hPa 0,0 l/m 11,3 km/h (2 Bft) W-SW 0,00 h 0,026 mm 0,0 UV-I 0 W/m 0,4 C -0,0 C 16,8 km/h (3 Bft) 98,01 %
19.11.2017 05:00 3,7 C 5,6 C 81 % 1014,4 hPa 0,0 l/m 15,0 km/h (3 Bft) W-SW 0,00 h 0,025 mm 0,0 UV-I 0 W/m 0,8 C -2,4 C 23,3 km/h (4 Bft) 97,26 %
19.11.2017 06:00 2,5 C 5,5 C 92 % 1013,8 hPa 1,0 l/m 11,9 km/h (2 Bft) SW 0,00 h 0,025 mm 0,0 UV-I 0 W/m 1,3 C -2,0 C 18,2 km/h (3 Bft) 98,70 %
19.11.2017 07:00 1,5 C 5,4 C 95 % 1013,5 hPa 1,4 l/m 11,4 km/h (2 Bft) W-SW 0,00 h 0,000 mm 0,0 UV-I 8 W/m 0,8 C -2,8 C 17,9 km/h (3 Bft) 97,88 %
19.11.2017 08:00 1,8 C 5,0 C 95 % 1013,5 hPa 0,4 l/m 15,1 km/h (3 Bft) SW 0,00 h 0,000 mm 0,0 UV-I 17 W/m 1,1 C -4,8 C 22,8 km/h (4 Bft) 97,11 %
19.11.2017 09:00 2,4 C 5,0 C 95 % 1013,4 hPa 0,2 l/m 15,6 km/h (3 Bft) SW 0,00 h 0,000 mm 0,0 UV-I 44 W/m 1,6 C -4,3 C 23,3 km/h (4 Bft) 97,53 %
19.11.2017 10:00 3,1 C 5,0 C 94 % 1013,6 hPa 1,0 l/m 14,2 km/h (3 Bft) W-SW 0,00 h 0,026 mm 0,0 UV-I 43 W/m 2,2 C -2,7 C 21,9 km/h (4 Bft) 99,51 %
19.11.2017 11:00 2,8 C 5,0 C 94 % 1014,0 hPa 1,0 l/m 17,2 km/h (3 Bft) W 0,00 h 0,025 mm 0,0 UV-I 70 W/m 1,9 C -4,6 C 26,1 km/h (4 Bft) 98,30 %
19.11.2017 12:00 2,9 C 5,0 C 95 % 1014,2 hPa 0,2 l/m 12,9 km/h (3 Bft) W-SW 0,17 h 0,026 mm 0,5 UV-I 147 W/m 2,2 C -2,2 C 20,0 km/h (4 Bft) 97,55 %
19.11.2017 13:00 3,8 C 5,0 C 93 % 1014,3 hPa 0,0 l/m 15,9 km/h (3 Bft) W 0,00 h 0,050 mm 0,0 UV-I 93 W/m 2,8 C -2,7 C 24,6 km/h (4 Bft) 97,00 %
19.11.2017 14:00 3,0 C 5,0 C 92 % 1015,0 hPa 1,2 l/m 15,1 km/h (3 Bft) W 0,00 h 0,051 mm 0,0 UV-I 48 W/m 1,8 C -3,3 C 25,4 km/h (4 Bft) 99,25 %
19.11.2017 15:00 2,0 C 5,1 C 95 % 1015,9 hPa 0,0 l/m 14,0 km/h (3 Bft) W 0,00 h 0,026 mm 0,0 UV-I 25 W/m 1,3 C -4,0 C 20,5 km/h (4 Bft) 97,96 %
19.11.2017 16:00 2,9 C 5,0 C 92 % 1016,2 hPa 0,2 l/m 17,8 km/h (3 Bft) W-SW 0,00 h 0,025 mm 0,0 UV-I 6 W/m 1,7 C -4,7 C 26,0 km/h (4 Bft) 97,62 %
19.11.2017 17:00 3,1 C 5,0 C 89 % 1016,3 hPa 0,0 l/m 22,6 km/h (4 Bft) SW 0,00 h 0,025 mm 0,0 UV-I 0 W/m 1,5 C -6,6 C 33,4 km/h (5 Bft) 97,92 %
19.11.2017 18:00 3,3 C 5,0 C 87 % 1016,8 hPa 0,0 l/m 21,2 km/h (4 Bft) SW 0,00 h 0,026 mm 0,0 UV-I 0 W/m 1,4 C -5,8 C 32,3 km/h (5 Bft) 99,09 %
19.11.2017 19:00 3,4 C 5,0 C 87 % 1017,1 hPa 0,0 l/m 22,5 km/h (4 Bft) SW 0,00 h 0,025 mm 0,0 UV-I 0 W/m 1,4 C -6,2 C 33,5 km/h (5 Bft) 98,97 %
19.11.2017 20:00 3,4 C 5,0 C 86 % 1017,3 hPa 0,0 l/m 22,6 km/h (4 Bft) SW 0,00 h 0,026 mm 0,0 UV-I 0 W/m 1,3 C -6,2 C 34,3 km/h (5 Bft) 96,28 %
19.11.2017 21:00 3,6 C 5,0 C 85 % 1017,8 hPa 0,0 l/m 20,7 km/h (4 Bft) W-SW 0,00 h 0,025 mm 0,0 UV-I 0 W/m 1,3 C -5,2 C 31,0 km/h (5 Bft) 98,57 %
19.11.2017 22:00 3,7 C 5,0 C 84 % 1018,1 hPa 0,0 l/m 21,6 km/h (4 Bft) W-SW 0,00 h 0,025 mm 0,0 UV-I 0 W/m 1,2 C -5,4 C 33,2 km/h (5 Bft) 98,12 %
19.11.2017 23:00 3,7 C 5,0 C 84 % 1018,3 hPa 0,0 l/m 20,7 km/h (4 Bft) W-SW 0,00 h 0,026 mm 0,0 UV-I 0 W/m 1,3 C -5,0 C 31,8 km/h (5 Bft) 99,34 %
Min-Datum _ 14.11.17 19.11.17 18.11.17 13.11.17 - 14.11.17 - - - - - 14.11.17 16.11.17 14.11.17 17.11.17
_ Min-Zeit 06:36 06:30 23:36 00:00 - 06:16 - - - - - 06:36 05:50 08:32 00:02
Minimum _ -0,6 C 5,0 C 76 % 1003,5 hPa - 0,0 km/h (0 Bft) - - - - - -1,3 C -8,4 C 0,0 km/h (0 Bft) 6,67 %
Max-Datum _ 13.11.17 13.11.17 16.11.17 15.11.17 19.11.17 19.11.17 - 14.11.17 14.11.17 14.11.17 14.11.17 18.11.17 13.11.17 19.11.17 13.11.17
_ Max-Zeit 14:42 00:00 02:16 09:26 07:02 22:24 - 09:30 11:00 11:22 11:22 17:18 14:38 22:16 00:00
Maximum _ 5,3 C 7,8 C 98 % 1029,5 hPa 1,4 l/m 31,1 km/h
W-SW (5 Bft)
- 0,08 h 0,127 mm 1,0 UV-I 507 W/m 3,3 C 5,2 C 46,7 km/h
W-SW (6 Bft)
100,00 %
Durchschnitt _ 2,2 C 6,1 C 91 % 1021,6 hPa #7,6 l/m 7,8 km/h (2 Bft) W-SW #7:45 h #2,845 mm 0,5 UV-I 78 W/m 0,9 C 0,0 C 12,5 km/h (3 Bft) 97,88 %